createdAt,value
2019-04-24T00:00:19.256Z,14.89
2019-04-24T00:01:05.843Z,14.92
2019-04-24T00:02:17.199Z,14.92
2019-04-24T00:04:10.739Z,14.94
2019-04-24T00:05:16.305Z,14.83
2019-04-24T00:06:57.667Z,14.88
2019-04-24T00:08:06.829Z,14.83
2019-04-24T00:08:55.908Z,14.86
2019-04-24T00:10:02.597Z,14.89
2019-04-24T00:11:20.518Z,14.94
2019-04-24T00:13:06.700Z,14.86
2019-04-24T00:14:10.569Z,14.81
2019-04-24T00:15:57.375Z,14.83
2019-04-24T00:17:07.082Z,14.83
2019-04-24T00:18:25.613Z,14.92
2019-04-24T00:20:07.991Z,14.84
2019-04-24T00:21:03.524Z,14.86
2019-04-24T00:22:04.126Z,14.81
2019-04-24T00:23:03.886Z,14.86
2019-04-24T00:25:04.081Z,14.81
2019-04-24T00:25:53.376Z,14.84
2019-04-24T00:26:59.282Z,14.78
2019-04-24T00:27:58.595Z,14.77
2019-04-24T00:29:02.694Z,14.75
2019-04-24T00:29:55.756Z,14.73
2019-04-24T00:30:58.660Z,14.75
2019-04-24T00:31:56.380Z,14.65
2019-04-24T00:33:03.425Z,14.65
2019-04-24T00:34:08.005Z,14.68
2019-04-24T00:35:02.897Z,14.69
2019-04-24T00:36:17.940Z,14.70
2019-04-24T00:37:00.395Z,14.70
2019-04-24T00:37:57.527Z,14.61
2019-04-24T00:40:03.133Z,14.62
2019-04-24T00:41:09.074Z,14.65
2019-04-24T00:43:15.268Z,14.68
2019-04-24T00:45:01.094Z,14.61
2019-04-24T00:45:56.617Z,14.65
2019-04-24T00:48:09.080Z,14.57
2019-04-24T00:48:56.500Z,14.62
2019-04-24T00:51:06.716Z,14.58
2019-04-24T00:51:52.004Z,14.51
2019-04-24T00:54:03.208Z,14.52
2019-04-24T00:54:52.161Z,14.51
2019-04-24T00:56:03.941Z,14.57
2019-04-24T00:56:58.785Z,14.50
2019-04-24T00:58:01.128Z,14.55
2019-04-24T00:59:09.495Z,14.55
2019-04-24T00:59:45.813Z,14.57
2019-04-24T01:01:02.574Z,14.54
2019-04-24T01:02:10.269Z,14.60
2019-04-24T01:02:58.684Z,14.57
2019-04-24T01:04:01.805Z,14.47
2019-04-24T01:05:56.719Z,14.42
2019-04-24T01:07:14.207Z,14.45
2019-04-24T01:08:02.063Z,14.42
2019-04-24T01:08:47.214Z,14.50
2019-04-24T01:10:06.717Z,14.45
2019-04-24T01:10:45.554Z,14.43
2019-04-24T01:11:59.450Z,14.46
2019-04-24T01:13:04.903Z,14.39
2019-04-24T01:13:58.157Z,14.37
2019-04-24T01:14:59.556Z,14.42
2019-04-24T01:16:00.758Z,14.39
2019-04-24T01:16:56.100Z,14.45
2019-04-24T01:17:48.658Z,14.43
2019-04-24T01:18:50.311Z,14.45
2019-04-24T01:20:15.597Z,14.46
2019-04-24T01:20:57.835Z,14.50
2019-04-24T01:21:59.785Z,14.45
2019-04-24T01:23:15.368Z,14.50
2019-04-24T01:23:53.954Z,14.40
2019-04-24T01:25:03.008Z,14.37
2019-04-24T01:26:51.341Z,14.36
2019-04-24T01:28:07.596Z,14.45
2019-04-24T01:30:11.165Z,14.40
2019-04-24T01:31:51.349Z,14.46
2019-04-24T01:33:18.078Z,14.50
2019-04-24T01:33:49.688Z,14.37
2019-04-24T01:36:02.389Z,14.42
2019-04-24T01:37:09.466Z,14.40
2019-04-24T01:38:50.789Z,14.40
2019-04-24T01:39:50.847Z,14.46
2019-04-24T01:40:52.536Z,14.45
2019-04-24T01:42:02.146Z,14.43
2019-04-24T01:43:05.438Z,14.40
2019-04-24T01:43:51.139Z,14.43
2019-04-24T01:45:01.255Z,14.47
2019-04-24T01:45:54.401Z,14.42
2019-04-24T01:48:07.379Z,14.37
2019-04-24T01:48:51.919Z,14.43
2019-04-24T01:51:07.518Z,14.35
2019-04-24T01:52:13.986Z,14.37
2019-04-24T01:52:59.094Z,14.36
2019-04-24T01:53:48.401Z,14.45
2019-04-24T01:54:49.103Z,14.40
2019-04-24T01:55:48.277Z,14.35
2019-04-24T01:57:46.460Z,14.37
2019-04-24T01:58:55.040Z,14.40
2019-04-24T01:59:49.078Z,14.33
2019-04-24T02:03:50.829Z,14.33
2019-04-24T02:04:56.555Z,14.35
2019-04-24T02:05:44.895Z,14.29
2019-04-24T02:06:42.231Z,14.29
2019-04-24T02:07:47.595Z,14.37
2019-04-24T02:08:39.556Z,14.33
2019-04-24T02:09:56.156Z,14.33
2019-04-24T02:11:12.311Z,14.29
2019-04-24T02:13:35.923Z,14.43
2019-04-24T02:15:12.970Z,14.32
2019-04-24T02:15:43.534Z,14.39
2019-04-24T02:16:42.963Z,14.37
2019-04-24T02:19:47.818Z,14.24
2019-04-24T02:20:39.854Z,14.27
2019-04-24T02:22:49.734Z,14.25
2019-04-24T02:23:47.815Z,14.25
2019-04-24T02:24:56.086Z,14.22
2019-04-24T02:26:37.504Z,14.25
2019-04-24T02:27:56.502Z,14.28
2019-04-24T02:30:11.886Z,14.29
2019-04-24T02:32:18.638Z,14.15
2019-04-24T02:34:00.714Z,14.21
2019-04-24T02:36:04.557Z,14.10
2019-04-24T02:36:59.516Z,14.12
2019-04-24T02:37:55.700Z,14.09
2019-04-24T02:40:49.277Z,14.07
2019-04-24T02:43:54.818Z,14.07
2019-04-24T02:46:51.848Z,13.96
2019-04-24T02:49:15.205Z,13.97
2019-04-24T02:50:51.633Z,13.96
2019-04-24T02:51:52.533Z,13.96
2019-04-24T02:52:57.867Z,13.92
2019-04-24T02:53:51.871Z,13.87
2019-04-24T02:55:40.713Z,13.97
2019-04-24T02:58:54.987Z,13.96
2019-04-24T02:59:57.272Z,13.79
2019-04-24T03:00:55.460Z,13.78
2019-04-24T03:03:05.579Z,13.84
2019-04-24T03:03:54.924Z,13.75
2019-04-24T03:05:57.688Z,13.77
2019-04-24T03:08:56.108Z,13.73
2019-04-24T03:10:12.390Z,13.78
2019-04-24T03:10:55.444Z,13.78
2019-04-24T03:12:10.689Z,13.75
2019-04-24T03:15:02.553Z,13.69
2019-04-24T03:17:41.675Z,13.73
2019-04-24T03:18:56.643Z,13.70
2019-04-24T03:19:49.639Z,13.63
2019-04-24T03:22:56.717Z,13.71
2019-04-24T03:23:46.107Z,13.69
2019-04-24T03:29:02.501Z,13.52
2019-04-24T03:33:23.536Z,13.46
2019-04-24T03:37:01.404Z,13.39
2019-04-24T03:44:14.166Z,13.33
2019-04-24T03:52:06.820Z,13.36
2019-04-24T03:52:36.778Z,13.28
2019-04-24T03:54:10.422Z,13.30
2019-04-24T03:54:55.381Z,13.30
2019-04-24T03:57:03.484Z,13.32
2019-04-24T03:58:58.450Z,13.33
2019-04-24T04:00:03.224Z,13.28
2019-04-24T04:00:48.718Z,13.32
2019-04-24T04:01:52.164Z,13.33
2019-04-24T04:03:52.654Z,13.36
2019-04-24T04:05:06.662Z,13.32
2019-04-24T04:10:46.918Z,13.41
2019-04-24T04:11:57.891Z,13.36
2019-04-24T04:13:41.378Z,13.33
2019-04-24T04:15:40.471Z,13.39
2019-04-24T04:18:53.429Z,13.39
2019-04-24T04:21:44.806Z,13.49
2019-04-24T04:23:05.751Z,13.57
2019-04-24T04:24:40.838Z,13.64
2019-04-24T04:26:04.594Z,13.55
2019-04-24T04:27:48.131Z,13.63
2019-04-24T04:29:00.477Z,13.63
2019-04-24T04:34:04.354Z,13.63
2019-04-24T04:34:45.600Z,13.60
2019-04-24T04:35:49.572Z,13.62
2019-04-24T04:37:58.477Z,13.60
2019-04-24T04:39:48.830Z,13.73
2019-04-24T04:44:03.302Z,13.87
2019-04-24T04:45:56.595Z,13.89
2019-04-24T04:46:54.694Z,13.85
2019-04-24T04:47:27.317Z,13.85
2019-04-24T04:50:11.815Z,13.87
2019-04-24T04:51:43.543Z,13.87
2019-04-24T04:56:38.514Z,13.85
2019-04-24T04:57:54.232Z,13.85
2019-04-24T04:59:50.068Z,13.91
2019-04-24T05:01:49.506Z,13.89
2019-04-24T05:03:41.966Z,13.89
2019-04-24T05:07:38.598Z,13.97
2019-04-24T05:11:52.614Z,14.06
2019-04-24T05:12:46.981Z,14.09
2019-04-24T05:13:51.507Z,14.07
2019-04-24T05:15:28.293Z,14.12
2019-04-24T05:16:59.597Z,14.17
2019-04-24T05:17:57.647Z,14.17
2019-04-24T05:18:56.273Z,14.27
2019-04-24T05:22:32.511Z,14.24
2019-04-24T05:24:32.823Z,14.24
2019-04-24T05:27:44.996Z,14.27
2019-04-24T05:28:43.823Z,14.33
2019-04-24T05:29:45.271Z,14.28
2019-04-24T05:31:43.955Z,14.39
2019-04-24T05:32:53.636Z,14.42
2019-04-24T05:33:38.629Z,14.28
2019-04-24T05:35:40.220Z,14.27
2019-04-24T05:36:34.055Z,14.29
2019-04-24T05:37:40.741Z,14.24
2019-04-24T05:39:36.335Z,14.20
2019-04-24T05:40:37.550Z,14.36
2019-04-24T05:44:25.420Z,14.28
2019-04-24T05:46:33.259Z,14.50
2019-04-24T05:47:41.013Z,14.46
2019-04-24T05:48:45.381Z,14.37
2019-04-24T05:49:41.321Z,14.42
2019-04-24T05:50:36.405Z,14.46
2019-04-24T05:51:28.159Z,14.28
2019-04-24T05:52:44.310Z,14.37
2019-04-24T05:53:49.795Z,14.46
2019-04-24T05:54:26.419Z,14.42
2019-04-24T05:55:45.181Z,14.46
2019-04-24T05:56:54.178Z,14.51
2019-04-24T05:57:49.085Z,14.54
2019-04-24T05:58:24.602Z,14.55
2019-04-24T05:59:34.899Z,14.54
2019-04-24T06:00:35.671Z,14.65
2019-04-24T06:01:49.076Z,14.51
2019-04-24T06:03:52.382Z,14.65
2019-04-24T06:04:40.007Z,14.73
2019-04-24T06:05:33.546Z,14.73
2019-04-24T06:06:39.176Z,14.65
2019-04-24T06:07:28.791Z,14.69
2019-04-24T06:08:46.481Z,14.72
2019-04-24T06:09:29.322Z,14.73
2019-04-24T06:10:39.614Z,14.73
2019-04-24T06:11:44.560Z,14.64
2019-04-24T06:12:40.477Z,14.68
2019-04-24T06:13:39.343Z,14.75
2019-04-24T06:14:45.318Z,14.65
2019-04-24T06:15:41.847Z,14.75
2019-04-24T06:16:40.291Z,14.92
2019-04-24T06:17:34.996Z,14.80
2019-04-24T06:19:34.136Z,14.73
2019-04-24T06:21:23.216Z,14.75
2019-04-24T06:22:26.430Z,14.81
2019-04-24T06:23:55.813Z,14.91
2019-04-24T06:25:50.157Z,15.06
2019-04-24T06:26:31.583Z,15.07
2019-04-24T06:27:35.125Z,14.98
2019-04-24T06:29:01.405Z,14.98
2019-04-24T06:30:36.313Z,14.99
2019-04-24T06:32:05.221Z,14.98
2019-04-24T06:33:43.116Z,15.06
2019-04-24T06:34:28.762Z,15.10
2019-04-24T06:35:46.357Z,15.13
2019-04-24T06:36:51.332Z,15.21
2019-04-24T06:38:39.577Z,15.13
2019-04-24T06:40:39.632Z,15.23
2019-04-24T06:42:32.886Z,15.11
2019-04-24T06:43:43.240Z,15.11
2019-04-24T06:44:47.282Z,15.09
2019-04-24T06:48:21.343Z,15.27
2019-04-24T06:50:50.506Z,15.36
2019-04-24T06:51:23.988Z,15.39
2019-04-24T06:53:37.519Z,15.53
2019-04-24T06:54:36.494Z,15.41
2019-04-24T06:55:38.167Z,15.53
2019-04-24T06:56:55.654Z,15.57
2019-04-24T06:57:38.750Z,15.71
2019-04-24T06:58:16.726Z,15.47
2019-04-24T06:59:32.452Z,15.41
2019-04-24T07:00:33.265Z,15.35
2019-04-24T07:02:24.608Z,15.31
2019-04-24T07:03:45.146Z,15.36
2019-04-24T07:06:35.032Z,15.72
2019-04-24T07:08:15.766Z,15.75
2019-04-24T07:09:31.097Z,15.93
2019-04-24T07:10:41.433Z,16.09
2019-04-24T07:11:29.487Z,16.14
2019-04-24T07:12:28.692Z,16.21
2019-04-24T07:14:17.587Z,16.41
2019-04-24T07:15:28.950Z,16.53
2019-04-24T07:17:34.202Z,16.50
2019-04-24T07:19:30.804Z,16.50
2019-04-24T07:20:30.044Z,16.34
2019-04-24T07:21:22.281Z,16.41
2019-04-24T07:22:19.640Z,16.33
2019-04-24T07:23:26.203Z,16.48
2019-04-24T07:24:37.889Z,16.60
2019-04-24T07:25:45.796Z,16.71
2019-04-24T07:28:30.599Z,16.42
2019-04-24T07:29:26.845Z,16.58
2019-04-24T07:30:35.764Z,16.31
2019-04-24T07:32:23.520Z,16.61
2019-04-24T07:33:25.415Z,16.61
2019-04-24T07:34:36.729Z,16.64
2019-04-24T07:36:28.234Z,16.81
2019-04-24T07:37:29.128Z,17.21
2019-04-24T07:38:23.284Z,17.54
2019-04-24T07:39:30.376Z,17.87
2019-04-24T07:40:12.952Z,17.49
2019-04-24T07:42:13.199Z,17.63
2019-04-24T07:47:16.838Z,17.21
2019-04-24T07:48:22.264Z,17.44
2019-04-24T07:49:19.271Z,17.66
2019-04-24T07:50:32.829Z,17.78
2019-04-24T07:51:28.111Z,18.00
2019-04-24T07:53:27.484Z,17.75
2019-04-24T07:54:23.023Z,18.02
2019-04-24T07:55:17.910Z,18.17
2019-04-24T07:56:52.794Z,18.26
2019-04-24T07:57:14.532Z,18.65
2019-04-24T07:58:28.887Z,18.37
2019-04-24T07:59:42.081Z,18.69
2019-04-24T08:00:32.687Z,19.07
2019-04-24T08:01:30.143Z,19.10
2019-04-24T08:03:33.588Z,18.73
2019-04-24T08:06:22.855Z,19.25
2019-04-24T08:07:18.419Z,19.39
2019-04-24T08:08:22.797Z,19.88
2019-04-24T08:09:21.543Z,20.20
2019-04-24T08:11:15.936Z,20.17
2019-04-24T08:14:35.096Z,20.16
2019-04-24T08:16:15.540Z,20.35
2019-04-24T08:17:34.448Z,19.55
2019-04-24T08:18:12.285Z,20.02
2019-04-24T08:19:36.835Z,19.91
2019-04-24T08:21:14.240Z,20.74
2019-04-24T08:22:22.344Z,20.70
2019-04-24T08:24:27.856Z,20.29
2019-04-24T08:26:12.867Z,20.59
2019-04-24T08:27:28.071Z,20.59
2019-04-24T08:28:27.407Z,20.38
2019-04-24T08:29:10.424Z,20.95
2019-04-24T08:30:15.894Z,21.01
2019-04-24T08:31:31.314Z,21.32
2019-04-24T08:33:27.091Z,21.37
2019-04-24T08:34:34.462Z,20.42
2019-04-24T08:35:20.137Z,20.70
2019-04-24T08:36:28.311Z,20.84
2019-04-24T08:37:17.628Z,20.28
2019-04-24T08:42:26.770Z,21.24
2019-04-24T08:43:23.718Z,21.07
2019-04-24T08:44:18.137Z,21.42
2019-04-24T08:46:19.791Z,21.19
2019-04-24T08:47:28.803Z,20.39
2019-04-24T08:48:25.439Z,20.59
2019-04-24T08:49:15.204Z,20.05
2019-04-24T08:50:34.193Z,20.51
2019-04-24T08:52:49.367Z,20.48
2019-04-24T08:53:24.210Z,20.98
2019-04-24T08:55:19.378Z,20.31
2019-04-24T08:56:20.021Z,20.06
2019-04-24T08:57:14.721Z,20.43
2019-04-24T08:59:22.035Z,21.03
2019-04-24T09:00:34.691Z,20.99
2019-04-24T09:01:28.096Z,20.52
2019-04-24T09:02:08.437Z,20.80
2019-04-24T09:04:15.784Z,20.18
2019-04-24T09:05:03.887Z,20.06
2019-04-24T09:06:06.101Z,20.10
2019-04-24T09:07:38.471Z,20.10
2019-04-24T09:09:26.079Z,19.95
2019-04-24T09:10:35.817Z,20.14
2019-04-24T09:12:16.557Z,20.05
2019-04-24T09:15:17.012Z,20.47
2019-04-24T09:16:28.916Z,20.16
2019-04-24T09:17:10.540Z,19.80
2019-04-24T09:18:14.263Z,19.78
2019-04-24T09:20:23.739Z,20.28
2019-04-24T09:21:15.592Z,20.03
2019-04-24T09:22:12.612Z,20.64
2019-04-24T09:23:28.892Z,21.21
2019-04-24T09:25:24.203Z,20.66
2019-04-24T09:28:15.604Z,21.03
2019-04-24T09:29:18.122Z,20.87
2019-04-24T09:30:28.934Z,20.35
2019-04-24T09:31:10.459Z,20.52
2019-04-24T09:32:36.042Z,20.73
2019-04-24T09:33:16.896Z,21.16
2019-04-24T09:34:04.120Z,21.34
2019-04-24T09:35:48.562Z,21.19
2019-04-24T09:37:15.983Z,21.96
2019-04-24T09:38:10.899Z,21.06
2019-04-24T09:39:15.251Z,21.17
2019-04-24T09:41:30.514Z,21.35
2019-04-24T09:44:03.901Z,20.82
2019-04-24T09:46:12.955Z,20.94
2019-04-24T09:47:12.834Z,20.77
2019-04-24T09:49:15.186Z,20.50
2019-04-24T09:50:18.345Z,20.24
2019-04-24T09:52:32.404Z,20.32
2019-04-24T09:55:08.847Z,20.66
2019-04-24T09:55:59.853Z,20.72
2019-04-24T09:57:13.414Z,20.57
2019-04-24T09:58:13.843Z,20.73
2019-04-24T10:00:08.596Z,20.82
2019-04-24T10:01:39.952Z,20.82
2019-04-24T10:02:17.470Z,20.67
2019-04-24T10:03:11.679Z,20.85
2019-04-24T10:06:20.760Z,21.31
2019-04-24T10:07:26.742Z,21.10
2019-04-24T10:08:14.750Z,20.85
2019-04-24T10:09:10.297Z,20.74
2019-04-24T10:10:13.108Z,20.85
2019-04-24T10:11:06.322Z,21.31
2019-04-24T10:15:06.220Z,20.88
2019-04-24T10:16:29.435Z,21.01
2019-04-24T10:18:02.259Z,20.64
2019-04-24T10:19:26.721Z,20.95
2019-04-24T10:21:05.258Z,21.28
2019-04-24T10:21:58.398Z,21.32
2019-04-24T10:23:14.811Z,21.37
2019-04-24T10:25:12.189Z,21.37
2019-04-24T10:26:03.208Z,21.61
2019-04-24T10:27:12.172Z,21.35
2019-04-24T10:28:13.724Z,21.40
2019-04-24T10:30:04.463Z,21.99
2019-04-24T10:31:00.065Z,22.17
2019-04-24T10:32:37.367Z,21.96
2019-04-24T10:33:08.897Z,21.99
2019-04-24T10:35:27.090Z,22.17
2019-04-24T10:36:06.243Z,22.42
2019-04-24T10:39:39.382Z,22.43
2019-04-24T10:42:02.058Z,21.58
2019-04-24T10:44:13.237Z,21.29
2019-04-24T10:46:08.659Z,21.49
2019-04-24T10:48:04.692Z,22.07
2019-04-24T10:49:16.313Z,22.67
2019-04-24T10:50:13.462Z,22.88
2019-04-24T10:51:03.651Z,22.94
2019-04-24T10:53:07.853Z,23.93
2019-04-24T10:53:56.088Z,23.57
2019-04-24T10:56:08.419Z,24.10
2019-04-24T10:57:09.378Z,24.60
2019-04-24T10:58:01.987Z,24.34
2019-04-24T10:58:56.461Z,24.80
2019-04-24T11:01:17.365Z,24.09
2019-04-24T11:02:22.451Z,23.57
2019-04-24T11:03:14.683Z,23.88
2019-04-24T11:05:04.444Z,24.53
2019-04-24T11:06:00.367Z,24.39
2019-04-24T11:08:11.111Z,24.65
2019-04-24T11:09:29.458Z,24.28
2019-04-24T11:10:23.512Z,24.76
2019-04-24T11:11:00.977Z,25.51
2019-04-24T11:12:07.706Z,25.24
2019-04-24T11:14:19.333Z,24.77
2019-04-24T11:15:02.742Z,25.14
2019-04-24T11:16:24.561Z,25.13
2019-04-24T11:18:18.487Z,25.15
2019-04-24T11:19:10.853Z,25.06
2019-04-24T11:20:02.409Z,25.09
2019-04-24T11:21:22.946Z,25.10
2019-04-24T11:23:08.760Z,25.43
2019-04-24T11:24:17.272Z,25.24
2019-04-24T11:25:10.017Z,25.13
2019-04-24T11:26:13.459Z,24.77
2019-04-24T11:28:11.885Z,25.50
2019-04-24T11:30:07.606Z,25.58
2019-04-24T11:31:05.250Z,25.82
2019-04-24T11:32:14.125Z,26.21
2019-04-24T11:36:05.932Z,25.10
2019-04-24T11:37:00.978Z,24.68
2019-04-24T11:38:04.019Z,25.21
2019-04-24T11:41:17.619Z,25.27
2019-04-24T11:41:56.707Z,24.47
2019-04-24T11:42:58.177Z,24.32
2019-04-24T11:44:05.976Z,24.43
2019-04-24T11:45:11.108Z,25.05
2019-04-24T11:48:14.246Z,25.06
2019-04-24T11:49:05.128Z,25.32
2019-04-24T11:50:24.517Z,25.03
2019-04-24T11:52:14.662Z,25.13
2019-04-24T11:53:10.742Z,25.51
2019-04-24T11:53:53.942Z,25.91
2019-04-24T11:56:01.801Z,25.67
2019-04-24T11:57:17.493Z,25.45
2019-04-24T11:58:48.422Z,24.80
2019-04-24T11:59:42.015Z,24.67
2019-04-24T12:01:06.783Z,24.64
2019-04-24T12:02:05.229Z,24.22
2019-04-24T12:02:56.481Z,23.97
2019-04-24T12:04:03.493Z,23.80
2019-04-24T12:05:02.418Z,24.31
2019-04-24T12:07:02.867Z,24.46
2019-04-24T12:08:59.786Z,25.13
2019-04-24T12:11:14.515Z,26.51
2019-04-24T12:11:56.846Z,26.07
2019-04-24T12:13:05.992Z,26.69
2019-04-24T12:14:01.031Z,26.91
2019-04-24T12:14:52.196Z,26.82
2019-04-24T12:16:50.217Z,26.57
2019-04-24T12:18:01.017Z,25.67
2019-04-24T12:21:08.747Z,25.35
2019-04-24T12:24:58.785Z,25.79
2019-04-24T12:26:02.688Z,25.91
2019-04-24T12:26:50.683Z,26.09
2019-04-24T12:28:00.241Z,25.42
2019-04-24T12:31:59.799Z,27.36
2019-04-24T12:33:00.971Z,26.88
2019-04-24T12:33:47.899Z,26.84
2019-04-24T12:35:56.694Z,26.72
2019-04-24T12:37:03.400Z,26.33
2019-04-24T12:39:02.577Z,25.21
2019-04-24T12:40:03.847Z,25.40
2019-04-24T12:42:01.817Z,25.50
2019-04-24T12:42:54.411Z,25.90
2019-04-24T12:44:02.018Z,26.30
2019-04-24T12:44:47.507Z,26.87
2019-04-24T12:46:04.505Z,26.81
2019-04-24T12:47:03.375Z,26.70
2019-04-24T12:48:55.179Z,26.62
2019-04-24T12:49:55.034Z,26.21
2019-04-24T12:51:06.908Z,25.92
2019-04-24T12:51:48.143Z,26.21
2019-04-24T12:52:54.440Z,25.77
2019-04-24T12:53:56.985Z,26.23
2019-04-24T12:56:03.442Z,26.02
2019-04-24T12:58:21.061Z,26.50
2019-04-24T12:59:51.216Z,27.50
2019-04-24T13:02:04.789Z,25.51
2019-04-24T13:02:53.731Z,25.67
2019-04-24T13:05:51.510Z,26.60
2019-04-24T13:06:50.005Z,26.25
2019-04-24T13:08:05.015Z,25.91
2019-04-24T13:11:03.957Z,26.07
2019-04-24T13:11:58.069Z,26.23
2019-04-24T13:12:58.742Z,26.21
2019-04-24T13:14:05.792Z,25.73
2019-04-24T13:15:54.487Z,25.60
2019-04-24T13:19:11.608Z,25.98
2019-04-24T13:20:30.048Z,26.69
2019-04-24T13:21:31.723Z,27.03
2019-04-24T13:22:37.724Z,27.36
2019-04-24T13:23:41.499Z,26.95
2019-04-24T13:24:49.052Z,26.84
2019-04-24T13:25:58.153Z,26.30
2019-04-24T13:27:04.841Z,25.87
2019-04-24T13:28:14.630Z,26.26
2019-04-24T13:30:06.328Z,26.01
2019-04-24T13:31:04.185Z,25.87
2019-04-24T13:32:03.604Z,25.27
2019-04-24T13:33:03.616Z,25.38
2019-04-24T13:33:54.362Z,24.93
2019-04-24T13:35:04.938Z,24.49
2019-04-24T13:36:05.626Z,24.10
2019-04-24T13:37:03.686Z,24.12
2019-04-24T13:38:08.332Z,23.88
2019-04-24T13:39:09.509Z,23.87
2019-04-24T13:40:02.313Z,23.88
2019-04-24T13:40:55.043Z,23.76
2019-04-24T13:42:01.830Z,23.75
2019-04-24T13:42:59.321Z,23.83
2019-04-24T13:44:05.979Z,23.73
2019-04-24T13:46:03.584Z,23.84
2019-04-24T13:47:01.709Z,23.75
2019-04-24T13:48:07.085Z,23.83
2019-04-24T13:48:54.064Z,23.85
2019-04-24T13:49:54.549Z,23.79
2019-04-24T13:50:51.056Z,23.98
2019-04-24T13:52:04.118Z,24.10
2019-04-24T13:53:26.114Z,23.95
2019-04-24T13:54:58.626Z,24.00
2019-04-24T13:55:54.243Z,23.95
2019-04-24T13:56:54.569Z,24.08
2019-04-24T13:58:03.594Z,24.10
2019-04-24T13:58:51.142Z,24.05
2019-04-24T14:00:03.306Z,24.22
2019-04-24T14:00:56.310Z,24.24
2019-04-24T14:02:01.369Z,24.24
2019-04-24T14:04:11.993Z,24.13
2019-04-24T14:04:59.332Z,24.27
2019-04-24T14:07:11.867Z,24.35
2019-04-24T14:09:10.193Z,24.42
2019-04-24T14:11:31.402Z,24.34
2019-04-24T14:12:47.559Z,24.37
2019-04-24T14:16:02.933Z,24.08
2019-04-24T14:17:01.019Z,24.00
2019-04-24T14:18:13.898Z,24.00
2019-04-24T14:19:07.713Z,24.12
2019-04-24T14:19:59.483Z,24.09
2019-04-24T14:20:53.065Z,23.97
2019-04-24T14:21:54.347Z,23.90
2019-04-24T14:23:02.579Z,24.00
2019-04-24T14:23:59.128Z,24.05
2019-04-24T14:25:00.153Z,24.08
2019-04-24T14:25:59.050Z,24.06
2019-04-24T14:27:01.226Z,23.94
2019-04-24T14:28:15.633Z,23.87
2019-04-24T14:28:48.820Z,23.95
2019-04-24T14:29:48.155Z,23.87
2019-04-24T14:31:02.258Z,23.91
2019-04-24T14:33:11.162Z,23.83
2019-04-24T14:33:53.001Z,23.68
2019-04-24T14:34:54.845Z,23.73
2019-04-24T14:36:03.844Z,23.76
2019-04-24T14:37:53.860Z,23.90
2019-04-24T14:38:58.319Z,24.09
2019-04-24T14:39:49.823Z,23.93
2019-04-24T14:40:52.866Z,23.93
2019-04-24T14:41:59.378Z,23.93
2019-04-24T14:42:54.275Z,24.05
2019-04-24T14:44:04.741Z,24.12
2019-04-24T14:45:13.785Z,24.08
2019-04-24T14:46:03.619Z,24.06
2019-04-24T14:46:57.797Z,24.03
2019-04-24T14:47:45.364Z,24.10
2019-04-24T14:48:51.422Z,23.91
2019-04-24T14:49:59.386Z,23.83
2019-04-24T14:50:47.593Z,23.87
2019-04-24T14:51:49.541Z,23.94
2019-04-24T14:53:54.512Z,24.09
2019-04-24T14:54:51.781Z,24.15
2019-04-24T14:55:49.593Z,24.10
2019-04-24T14:56:58.949Z,24.00
2019-04-24T14:58:58.756Z,23.93
2019-04-24T14:59:54.765Z,23.91
2019-04-24T15:00:46.937Z,24.05
2019-04-24T15:01:56.292Z,23.98
2019-04-24T15:02:52.787Z,24.09
2019-04-24T15:03:48.646Z,23.95
2019-04-24T15:04:49.912Z,23.98
2019-04-24T15:06:01.222Z,23.97
2019-04-24T15:06:58.209Z,23.87
2019-04-24T15:07:55.326Z,23.98
2019-04-24T15:08:54.332Z,24.09
2019-04-24T15:09:43.183Z,24.03
2019-04-24T15:10:45.309Z,24.00
2019-04-24T15:12:07.192Z,24.05
2019-04-24T15:14:59.486Z,24.06
2019-04-24T15:16:12.151Z,24.03
2019-04-24T15:17:50.404Z,23.98
2019-04-24T15:20:46.482Z,23.94
2019-04-24T15:21:56.817Z,24.09
2019-04-24T15:25:00.951Z,24.09
2019-04-24T15:26:49.472Z,24.15
2019-04-24T15:27:46.922Z,24.21
2019-04-24T15:28:52.445Z,24.22
2019-04-24T15:30:47.382Z,24.21
2019-04-24T15:31:53.810Z,24.10
2019-04-24T15:33:57.436Z,24.00
2019-04-24T15:34:51.589Z,23.88
2019-04-24T15:36:00.902Z,23.93
2019-04-24T15:36:45.571Z,23.97
2019-04-24T15:38:49.524Z,23.94
2019-04-24T15:39:49.837Z,23.95
2019-04-24T15:41:11.715Z,24.13
2019-04-24T15:41:53.415Z,24.09
2019-04-24T15:42:51.725Z,23.94
2019-04-24T15:43:44.350Z,23.94
2019-04-24T15:44:48.408Z,23.94
2019-04-24T15:45:45.302Z,23.87
2019-04-24T15:46:47.079Z,23.93
2019-04-24T15:47:59.094Z,24.06
2019-04-24T15:50:49.151Z,24.08
2019-04-24T15:51:34.057Z,23.97
2019-04-24T15:52:13.469Z,23.80
2019-04-24T15:53:13.636Z,23.83
2019-04-24T15:54:13.301Z,23.85
2019-04-24T15:55:13.650Z,23.83
2019-04-24T15:56:13.149Z,23.73
2019-04-24T15:57:13.303Z,23.72
2019-04-24T15:58:23.310Z,23.79
2019-04-24T15:59:36.218Z,23.83
2019-04-24T16:00:54.085Z,23.83
2019-04-24T16:01:43.698Z,23.83
2019-04-24T16:02:50.864Z,23.83
2019-04-24T16:03:50.058Z,23.80
2019-04-24T16:04:53.145Z,23.87
2019-04-24T16:05:12.462Z,23.79
2019-04-24T16:06:12.388Z,23.88
2019-04-24T16:07:12.313Z,23.88
2019-04-24T16:08:12.226Z,23.83
2019-04-24T16:09:12.945Z,23.83
2019-04-24T16:10:12.077Z,23.76
2019-04-24T16:11:12.001Z,23.73
2019-04-24T16:12:11.925Z,23.70
2019-04-24T16:13:16.627Z,23.72
2019-04-24T16:14:23.874Z,23.69
2019-04-24T16:15:40.556Z,23.66
2019-04-24T16:16:48.025Z,23.75
2019-04-24T16:17:45.864Z,23.65
2019-04-24T16:19:06.433Z,23.63
2019-04-24T16:19:41.051Z,23.66
2019-04-24T16:20:37.043Z,23.61
2019-04-24T16:21:37.471Z,23.65
2019-04-24T16:22:39.776Z,23.60
2019-04-24T16:25:37.186Z,23.68
2019-04-24T16:27:58.690Z,23.75
2019-04-24T16:28:47.659Z,23.65
2019-04-24T16:30:35.385Z,23.65
2019-04-24T16:32:03.886Z,23.63
2019-04-24T16:33:35.899Z,23.61
2019-04-24T16:35:53.641Z,23.55
2019-04-24T16:36:48.608Z,23.54
2019-04-24T16:38:55.112Z,23.55
2019-04-24T16:40:00.470Z,23.48
2019-04-24T16:40:55.199Z,23.43
2019-04-24T16:41:47.818Z,23.50
2019-04-24T16:43:36.499Z,23.46
2019-04-24T16:44:42.938Z,23.42
2019-04-24T16:45:40.263Z,23.35
2019-04-24T16:49:52.189Z,23.39
2019-04-24T16:52:36.722Z,23.28
2019-04-24T16:53:41.888Z,23.32
2019-04-24T16:54:29.418Z,23.31
2019-04-24T16:55:37.079Z,23.38
2019-04-24T16:56:42.715Z,23.28
2019-04-24T16:57:51.754Z,23.23
2019-04-24T16:58:31.505Z,23.28
2019-04-24T16:59:21.392Z,23.23
2019-04-24T17:01:52.192Z,23.22
2019-04-24T17:02:40.119Z,23.28
2019-04-24T17:04:05.165Z,23.32
2019-04-24T17:04:40.244Z,23.25
2019-04-24T17:06:43.129Z,23.10
2019-04-24T17:07:38.903Z,23.17
2019-04-24T17:10:42.347Z,23.10
2019-04-24T17:11:36.384Z,23.01
2019-04-24T17:12:49.316Z,22.98
2019-04-24T17:14:35.769Z,22.95
2019-04-24T17:16:39.908Z,22.88
2019-04-24T17:18:51.148Z,22.86
2019-04-24T17:19:46.465Z,22.90
2019-04-24T17:20:42.199Z,22.91
2019-04-24T17:22:38.838Z,22.95
2019-04-24T17:23:55.946Z,22.88
2019-04-24T17:24:49.226Z,22.79
2019-04-24T17:25:45.167Z,22.72
2019-04-24T17:26:25.755Z,22.68
2019-04-24T17:27:35.024Z,22.68
2019-04-24T17:28:33.238Z,22.73
2019-04-24T17:31:37.023Z,22.73
2019-04-24T17:33:30.887Z,22.67
2019-04-24T17:34:49.053Z,22.70
2019-04-24T17:35:38.365Z,22.67
2019-04-24T17:36:21.917Z,22.65
2019-04-24T17:37:05.373Z,22.60
2019-04-24T17:38:05.946Z,22.60
2019-04-24T17:39:05.215Z,22.68
2019-04-24T17:40:05.134Z,22.54
2019-04-24T17:41:06.766Z,22.54
2019-04-24T17:42:15.177Z,22.51
2019-04-24T17:43:31.323Z,22.49
2019-04-24T17:45:35.833Z,22.47
2019-04-24T17:46:34.458Z,22.51
2019-04-24T17:48:32.073Z,22.43
2019-04-24T17:51:00.215Z,22.43
2019-04-24T17:51:33.805Z,22.31
2019-04-24T17:53:32.401Z,22.14
2019-04-24T17:57:24.412Z,21.96
2019-04-24T17:58:05.147Z,22.12
2019-04-24T17:59:04.664Z,22.05
2019-04-24T18:00:04.171Z,22.05
2019-04-24T18:01:04.463Z,22.09
2019-04-24T18:02:03.577Z,22.00
2019-04-24T18:03:06.902Z,22.07
2019-04-24T18:04:03.274Z,21.99
2019-04-24T18:05:03.199Z,21.90
2019-04-24T18:06:03.968Z,21.98
2019-04-24T18:07:03.389Z,21.96
2019-04-24T18:08:03.189Z,21.94
2019-04-24T18:09:03.397Z,21.86
2019-04-24T18:10:03.121Z,21.82
2019-04-24T18:11:03.280Z,21.74
2019-04-24T18:12:04.077Z,21.71
2019-04-24T18:13:03.756Z,21.64
2019-04-24T18:14:02.738Z,21.62
2019-04-24T18:15:02.733Z,21.61